Time;durP1;ratioP1;P1;durP2;ratioP2;P2;SDS_P1;SDS_P2;PMS_P1;PMS_P2;Temp;Humidity;BMP_temperature;BMP_pressure;BME280_temperature;BME280_humidity;BME280_pressure;Samples;Min_cycle;Max_cycle;Signal;HPM_P1;HPM_P2
2023/07/30 02:01:05;;;;;;;;;;;;;;;;;;;;;
2023/07/30 02:07:32;;;;;;;9.90;2.20;;;21.50;89.80;;;;;;7438786;19;20290;-82
2023/07/30 02:10:15;;;;;;;7.90;2.00;;;21.50;89.50;;;;;;7404564;19;20007;-82
2023/07/30 02:12:50;;;;;;;7.32;1.80;;;21.50;89.50;;;;;;7390060;19;20024;-82
2023/07/30 03:06:17;;;;;;;8.15;1.98;;;21.60;90.20;;;;;;7425177;19;20372;-81
2023/07/30 03:11:56;;;;;;;8.63;2.20;;;21.50;88.70;;;;;;7421753;19;20073;-81
2023/07/30 03:14:36;;;;;;;12.50;2.00;;;21.30;87.80;;;;;;7422803;19;20010;-82
2023/07/30 03:17:06;;;;;;;14.05;2.75;;;21.20;88.70;;;;;;7420245;19;20026;-83
2023/07/30 03:19:35;;;;;;;16.75;2.72;;;21.10;88.70;;;;;;7419032;19;20368;-82
2023/07/30 03:22:07;;;;;;;16.50;2.72;;;21.00;88.70;;;;;;7440292;19;20003;-81
2023/07/30 03:24:36;;;;;;;9.18;2.20;;;21.00;89.20;;;;;;7420754;19;20018;-81
2023/07/30 03:27:05;;;;;;;16.10;2.67;;;20.90;89.00;;;;;;7420636;19;20010;-81
2023/07/30 03:29:33;;;;;;;20.95;2.70;;;20.80;89.10;;;;;;7420029;19;20376;-81
2023/07/30 03:32:14;;;;;;;10.05;2.10;;;20.80;89.60;;;;;;7421324;19;20030;-81
2023/07/30 03:35:03;;;;;;;11.02;2.63;;;20.70;89.60;;;;;;7418592;19;20003;-82
2023/07/30 03:37:42;;;;;;;15.75;2.22;;;20.80;89.70;;;;;;7439989;19;20010;-82
2023/07/30 03:40:12;;;;;;;10.75;2.63;;;20.90;89.90;;;;;;7419934;19;20034;-80
2023/07/30 03:42:40;;;;;;;11.60;2.38;;;20.90;89.70;;;;;;7419169;19;20026;-80
2023/07/30 03:45:10;;;;;;;18.20;2.50;;;21.00;89.90;;;;;;7420152;19;20007;-82
2023/07/30 03:47:39;;;;;;;13.07;2.33;;;21.00;89.80;;;;;;7420132;19;20006;-80
2023/07/30 03:50:09;;;;;;;15.68;2.72;;;21.00;90.10;;;;;;7421037;19;20508;-81
2023/07/30 03:52:40;;;;;;;13.18;2.35;;;21.10;89.70;;;;;;7430159;19;20003;-81
2023/07/30 03:55:47;;;;;;;;;;;;;;;;;;;;;
2023/07/30 04:38:37;;;;;;;;;;;;;;;;;;;;;
2023/07/30 04:51:05;;;;;;;16.10;2.25;;;21.10;90.10;;;;;;7414640;19;20034;-80
2023/07/30 04:53:36;;;;;;;8.98;2.58;;;21.10;90.20;;;;;;7437138;19;20010;-80
2023/07/30 04:56:06;;;;;;;12.45;2.33;;;21.10;90.20;;;;;;7416184;19;20089;-80
2023/07/30 04:58:35;;;;;;;10.55;2.10;;;21.10;90.30;;;;;;7414201;19;20034;-80
2023/07/30 05:01:04;;;;;;;14.85;2.20;;;21.00;89.10;;;;;;7440326;19;20015;-80
2023/07/30 05:03:32;;;;;;;14.20;2.92;;;21.00;89.50;;;;;;7417648;19;20043;-81
2023/07/30 05:06:04;;;;;;;18.77;2.97;;;21.00;90.00;;;;;;7416894;19;20077;-79
2023/07/30 05:08:36;;;;;;;14.50;2.70;;;21.00;90.20;;;;;;7415873;19;20027;-80
2023/07/30 05:11:14;;;;;;;;;;;;;;;;;;;;;
2023/07/30 05:14:19;;;;;;;10.18;1.95;;;21.00;89.70;;;;;;7416942;19;19918;-80
2023/07/30 05:20:03;;;;;;;19.42;2.70;;;21.10;90.00;;;;;;7415344;19;20062;-81
2023/07/30 05:22:31;;;;;;;13.95;2.35;;;21.10;90.10;;;;;;7413332;19;20048;-79
2023/07/30 05:25:10;;;;;;;15.48;2.67;;;21.00;90.10;;;;;;7440341;19;20117;-81
2023/07/30 05:27:40;;;;;;;11.43;2.03;;;21.10;90.20;;;;;;7417869;19;20007;-80
2023/07/30 05:30:10;;;;;;;10.82;2.17;;;21.10;90.20;;;;;;7421246;19;20005;-81
2023/07/30 05:32:50;;;;;;;11.63;2.25;;;21.10;90.00;;;;;;7420156;19;20016;-81
2023/07/30 05:35:25;;;;;;;13.32;2.70;;;21.10;90.00;;;;;;7416310;19;20318;-82
2023/07/30 05:41:23;;;;;;;15.70;2.55;;;21.10;89.60;;;;;;7385692;19;20405;-80
2023/07/30 05:43:52;;;;;;;11.25;2.63;;;21.00;89.50;;;;;;7386632;19;20010;-79
2023/07/30 05:46:21;;;;;;;14.70;2.30;;;21.10;90.00;;;;;;7406818;19;20014;-80
2023/07/30 05:48:49;;;;;;;14.63;2.22;;;21.10;90.00;;;;;;7391016;19;20003;-80
2023/07/30 05:51:28;;;;;;;9.27;2.33;;;21.10;89.90;;;;;;7393429;19;20007;-81
2023/07/30 05:53:57;;;;;;;17.05;2.78;;;21.10;89.90;;;;;;7406539;19;19999;-79
2023/07/30 05:56:28;;;;;;;16.08;2.78;;;21.20;89.70;;;;;;7404566;19;20013;-80
2023/07/30 05:59:25;;;;;;;10.70;2.30;;;21.10;89.00;;;;;;7406636;19;20026;-81
2023/07/30 06:01:54;;;;;;;16.65;2.90;;;21.10;89.30;;;;;;7402428;19;20033;-80
2023/07/30 06:04:24;;;;;;;10.65;2.15;;;21.10;89.30;;;;;;7410994;19;20020;-80
2023/07/30 06:06:54;;;;;;;11.48;2.53;;;21.10;88.80;;;;;;7389266;19;20006;-81
2023/07/30 06:09:23;;;;;;;25.83;3.10;;;21.10;89.00;;;;;;7390234;19;20030;-80
2023/07/30 06:11:54;;;;;;;14.82;2.95;;;21.10;89.00;;;;;;7389882;19;20006;-82
2023/07/30 06:14:23;;;;;;;13.23;2.55;;;20.90;89.00;;;;;;7389738;19;20011;-80
2023/07/30 06:16:52;;;;;;;19.20;2.88;;;21.00;89.50;;;;;;7389105;19;20034;-80
2023/07/30 06:19:24;;;;;;;18.65;3.05;;;21.00;89.80;;;;;;7409323;19;20010;-81
2023/07/30 06:21:52;;;;;;;16.63;2.72;;;21.10;89.80;;;;;;7389404;19;20017;-80
2023/07/30 06:24:21;;;;;;;13.05;2.38;;;21.10;89.50;;;;;;7389345;19;20007;-79
2023/07/30 06:27:58;;;;;;;;;;;;;;;;;;;;;
2023/07/30 06:30:30;;;;;;;13.15;2.45;;;21.10;89.60;;;;;;7391797;19;20046;-81
2023/07/30 06:33:01;;;;;;;11.90;2.28;;;21.00;89.70;;;;;;7390114;19;20006;-81
2023/07/30 06:35:29;;;;;;;18.87;3.20;;;21.10;90.00;;;;;;7389354;19;20048;-80
2023/07/30 06:37:58;;;;;;;13.93;2.50;;;21.20;89.80;;;;;;7389681;19;20211;-79
2023/07/30 06:40:27;;;;;;;6.93;2.58;;;21.20;89.70;;;;;;7383993;19;20011;-81
2023/07/30 06:43:03;;;;;;;10.50;3.20;;;21.10;89.60;;;;;;7406224;19;20007;-82
2023/07/30 06:45:39;;;;;;;16.00;2.97;;;20.90;89.60;;;;;;7385027;19;20014;-80
2023/07/30 06:48:15;;;;;;;16.27;2.53;;;21.00;90.00;;;;;;7385291;19;20002;-81
2023/07/30 06:50:46;;;;;;;14.50;2.95;;;20.90;90.00;;;;;;7382184;19;20017;-82
2023/07/30 07:31:35;;;;;;;14.57;2.58;;;21.30;86.80;;;;;;7414620;19;20034;-80
2023/07/30 07:34:04;;;;;;;12.00;2.58;;;21.20;85.40;;;;;;7436959;19;20251;-81
2023/07/30 07:36:33;;;;;;;15.32;2.90;;;21.20;86.10;;;;;;7417494;19;20031;-81
2023/07/30 07:39:02;;;;;;;15.07;2.65;;;21.10;86.30;;;;;;7418334;19;20009;-81
2023/07/30 07:41:31;;;;;;;9.23;2.30;;;20.80;85.90;;;;;;7416744;19;20006;-81
2023/07/30 07:44:02;;;;;;;12.48;2.65;;;20.90;86.20;;;;;;7418771;19;20038;-81
2023/07/30 07:46:31;;;;;;;9.77;2.42;;;21.10;85.90;;;;;;7419405;19;20006;-80
2023/07/30 07:49:08;;;;;;;11.25;3.03;;;21.20;86.00;;;;;;7438291;19;20063;-81
2023/07/30 07:51:36;;;;;;;12.13;2.72;;;21.20;84.80;;;;;;7427480;19;20034;-80
2023/07/30 07:54:06;;;;;;;12.35;2.33;;;21.30;84.90;;;;;;7436609;19;20015;-81
2023/07/30 07:56:38;;;;;;;15.48;3.15;;;21.30;84.70;;;;;;7439549;19;20090;-81
2023/07/30 07:59:09;;;;;;;13.27;2.72;;;21.40;83.80;;;;;;7438149;19;20059;-81
2023/07/30 08:21:58;;;;;;;14.55;2.72;;;20.90;84.60;;;;;;7418089;19;20377;-80
2023/07/30 08:24:27;;;;;;;11.68;2.80;;;21.50;82.80;;;;;;7420015;19;20426;-80
2023/07/30 08:26:56;;;;;;;10.38;2.13;;;21.60;82.40;;;;;;7420603;19;20006;-81
2023/07/30 08:29:25;;;;;;;10.73;2.22;;;21.50;81.60;;;;;;7418466;19;20023;-81
2023/07/30 08:31:54;;;;;;;9.73;2.75;;;21.50;81.90;;;;;;7417571;19;20030;-80
2023/07/30 08:34:25;;;;;;;13.35;2.45;;;21.50;81.80;;;;;;7442174;19;20218;-81
2023/07/30 08:36:53;;;;;;;8.68;2.58;;;21.50;82.60;;;;;;7420648;19;20100;-80
2023/07/30 08:39:27;;;;;;;7.20;2.15;;;21.70;81.70;;;;;;7421181;19;20114;-80
2023/07/30 08:41:56;;;;;;;14.40;2.70;;;21.50;80.40;;;;;;7420637;19;20078;-81
2023/07/30 08:44:30;;;;;;;15.60;2.85;;;21.60;80.80;;;;;;7420096;19;20006;-82
2023/07/30 08:47:09;;;;;;;8.82;2.40;;;21.60;81.40;;;;;;7417924;19;20003;-82
2023/07/30 08:49:38;;;;;;;10.18;2.85;;;21.80;82.00;;;;;;7421550;19;20007;-79
2023/07/30 08:52:11;;;;;;;7.63;2.35;;;21.80;81.10;;;;;;7439608;19;20002;-81
2023/07/30 08:54:45;;;;;;;10.73;2.72;;;21.90;80.30;;;;;;7419240;19;20026;-81
2023/07/30 08:57:26;;;;;;;9.23;2.65;;;21.80;80.20;;;;;;7419756;19;20010;-81
2023/07/30 09:00:29;;;;;;;10.48;2.67;;;21.90;81.00;;;;;;7420081;19;20337;-82
2023/07/30 09:03:02;;;;;;;11.00;2.42;;;22.00;80.90;;;;;;7418867;19;20361;-81
2023/07/30 09:05:31;;;;;;;11.35;3.03;;;22.10;79.70;;;;;;7419176;19;20023;-80
2023/07/30 09:08:00;;;;;;;10.55;2.30;;;22.10;79.40;;;;;;7417977;19;20030;-81
2023/07/30 09:10:32;;;;;;;9.15;2.28;;;22.10;78.70;;;;;;7416782;19;20034;-80
2023/07/30 09:13:01;;;;;;;10.05;2.17;;;22.10;79.70;;;;;;7437951;19;20038;-80
2023/07/30 09:15:37;;;;;;;16.45;2.75;;;22.20;79.60;;;;;;7417846;19;20003;-80
2023/07/30 09:18:30;;;;;;;10.60;2.92;;;22.30;79.60;;;;;;7419006;19;20010;-84
2023/07/30 09:21:05;;;;;;;8.90;2.42;;;22.20;78.30;;;;;;7416257;19;20003;-77
2023/07/30 09:23:50;;;;;;;8.77;2.47;;;22.00;78.80;;;;;;7392614;19;20003;-82
2023/07/30 09:32:58;;;;;;;15.02;2.78;;;22.10;80.30;;;;;;7330934;19;20351;-81
2023/07/30 09:35:28;;;;;;;14.73;2.53;;;22.00;79.10;;;;;;7392353;19;20043;-80
2023/07/30 09:38:30;;;;;;;10.50;2.80;;;22.00;78.60;;;;;;7390318;19;20003;-83
2023/07/30 09:41:37;;;;;;;8.55;2.47;;;22.20;79.10;;;;;;7395891;19;20031;-83
2023/07/30 09:44:08;;;;;;;15.60;2.65;;;22.10;78.60;;;;;;7395810;19;20007;-82
2023/07/30 10:27:52;;;;;;;7.10;2.40;;;22.80;75.20;;;;;;7387639;19;20075;-77
2023/07/30 10:30:22;;;;;;;8.85;2.30;;;22.90;73.20;;;;;;7386589;19;20030;-74
2023/07/30 10:33:05;;;;;;;6.97;2.00;;;23.00;73.20;;;;;;7382640;19;20016;-76
2023/07/30 10:35:45;;;;;;;3.67;1.77;;;22.90;73.20;;;;;;7384198;19;20016;-74
2023/07/30 10:38:24;;;;;;;5.47;2.10;;;22.90;72.50;;;;;;7385417;19;20107;-74
2023/07/30 10:41:09;;;;;;;7.88;2.08;;;22.70;71.90;;;;;;7384648;19;20007;-75
2023/07/30 10:43:43;;;;;;;6.80;1.95;;;22.70;72.10;;;;;;7383930;19;20010;-74
2023/07/30 10:46:13;;;;;;;7.13;2.22;;;22.60;72.40;;;;;;7408241;19;20074;-74
2023/07/30 10:48:43;;;;;;;5.60;1.75;;;22.60;72.60;;;;;;7383119;19;20261;-75
2023/07/30 10:51:13;;;;;;;8.55;1.70;;;22.60;72.60;;;;;;7381839;19;20018;-75
2023/07/30 10:53:46;;;;;;;6.80;1.90;;;22.70;71.20;;;;;;7383922;19;20404;-78
2023/07/30 10:56:16;;;;;;;5.50;1.98;;;22.80;71.00;;;;;;7385821;19;20002;-76
2023/07/30 10:58:52;;;;;;;6.07;1.65;;;22.90;71.10;;;;;;7383875;19;20006;-77
2023/07/30 11:01:21;;;;;;;4.35;1.63;;;23.00;68.90;;;;;;7403396;19;20010;-76
2023/07/30 11:03:52;;;;;;;10.50;2.42;;;23.10;69.40;;;;;;7382601;19;20003;-76
2023/07/30 11:06:24;;;;;;;9.88;1.95;;;22.90;68.90;;;;;;7382637;19;20122;-75
2023/07/30 11:08:53;;;;;;;4.53;1.92;;;23.00;69.90;;;;;;7383899;19;20013;-76
2023/07/30 11:11:25;;;;;;;6.88;1.88;;;23.20;68.90;;;;;;7382215;19;20019;-75
2023/07/30 11:13:56;;;;;;;9.93;1.98;;;23.30;69.10;;;;;;7383872;19;20061;-76
2023/07/30 11:16:25;;;;;;;8.23;1.77;;;23.30;67.80;;;;;;7404065;19;20010;-76
2023/07/30 11:18:54;;;;;;;7.65;2.00;;;23.30;67.90;;;;;;7382390;19;20017;-75
2023/07/30 11:24:38;;;;;;;6.57;2.10;;;23.30;69.20;;;;;;7382932;19;20002;-73
2023/07/30 11:27:07;;;;;;;6.75;2.10;;;23.40;69.90;;;;;;7288273;19;20085;-77
2023/07/30 11:29:55;;;;;;;8.05;1.83;;;23.60;69.00;;;;;;7369380;19;20027;-82
2023/07/30 11:32:40;;;;;;;9.50;2.40;;;23.70;66.90;;;;;;7389633;19;20006;-83
2023/07/30 11:35:21;;;;;;;5.75;2.20;;;23.80;66.80;;;;;;7387384;19;20019;-81
2023/07/30 11:37:51;;;;;;;6.15;1.90;;;23.90;66.20;;;;;;7384330;19;20007;-73
2023/07/30 11:40:20;;;;;;;8.02;2.42;;;23.90;65.60;;;;;;7382310;19;20010;-71
2023/07/30 11:42:49;;;;;;;3.70;1.80;;;24.00;65.30;;;;;;7383270;19;20014;-72
2023/07/30 11:45:25;;;;;;;5.03;1.75;;;24.00;65.50;;;;;;7403209;19;20010;-72
2023/07/30 11:47:54;;;;;;;4.82;1.90;;;24.00;65.60;;;;;;7387095;19;20042;-74
2023/07/30 11:50:24;;;;;;;9.32;2.17;;;23.90;66.40;;;;;;7381395;19;20013;-75
2023/07/30 11:52:57;;;;;;;6.78;2.13;;;23.90;66.50;;;;;;7383345;19;20003;-77
2023/07/30 11:55:39;;;;;;;8.57;2.20;;;23.90;66.60;;;;;;7386038;19;20093;-73
2023/07/30 11:58:09;;;;;;;6.90;2.47;;;23.80;66.30;;;;;;7385303;19;19999;-75
2023/07/30 12:00:44;;;;;;;7.32;1.95;;;24.00;66.90;;;;;;7384520;19;20007;-75
2023/07/30 12:03:16;;;;;;;6.80;2.28;;;24.10;64.30;;;;;;7409497;19;20031;-73
2023/07/30 12:05:44;;;;;;;5.70;2.30;;;24.20;64.30;;;;;;7382399;19;20092;-76
2023/07/30 12:08:19;;;;;;;5.78;2.53;;;24.20;64.10;;;;;;7389104;19;20023;-75
2023/07/30 12:10:51;;;;;;;5.35;2.20;;;24.30;63.30;;;;;;7387640;19;20014;-75
2023/07/30 12:13:21;;;;;;;8.02;2.55;;;24.30;63.90;;;;;;7387119;19;20006;-76
2023/07/30 12:15:57;;;;;;;9.60;3.55;;;24.30;64.70;;;;;;7388125;19;24936;-78
2023/07/30 12:18:29;;;;;;;10.75;2.50;;;24.20;64.60;;;;;;7407013;19;20020;-79
2023/07/30 12:21:01;;;;;;;7.63;2.67;;;24.10;64.50;;;;;;7384395;19;20015;-76
2023/07/30 12:23:30;;;;;;;8.10;2.58;;;24.30;65.00;;;;;;7382245;19;19999;-76
2023/07/30 12:25:58;;;;;;;6.40;2.70;;;24.30;64.00;;;;;;7382538;19;20006;-76
2023/07/30 12:28:31;;;;;;;10.50;2.22;;;24.40;64.50;;;;;;7382159;19;20013;-76
2023/07/30 12:31:08;;;;;;;6.93;2.67;;;24.10;63.40;;;;;;7384882;19;20086;-76
2023/07/30 12:33:41;;;;;;;6.63;2.97;;;24.10;64.30;;;;;;7384289;19;20218;-75
2023/07/30 12:36:13;;;;;;;8.10;2.20;;;24.00;65.60;;;;;;7409465;19;20028;-76
2023/07/30 12:38:42;;;;;;;11.00;2.53;;;24.00;65.50;;;;;;7390922;19;20003;-74
2023/07/30 12:41:11;;;;;;;8.20;2.50;;;24.20;65.90;;;;;;7381452;19;20015;-75
2023/07/30 12:43:41;;;;;;;12.05;2.45;;;24.50;64.10;;;;;;7381324;19;20356;-76
2023/07/30 12:46:15;;;;;;;7.32;2.67;;;24.50;61.70;;;;;;7381131;19;20435;-81
2023/07/30 12:48:45;;;;;;;7.68;2.60;;;24.50;62.00;;;;;;7382297;19;20003;-77
2023/07/30 12:51:15;;;;;;;6.28;2.03;;;24.50;62.40;;;;;;7407204;19;20250;-79
2023/07/30 12:53:44;;;;;;;10.15;2.58;;;24.40;62.50;;;;;;7388037;19;20373;-79
2023/07/30 12:56:14;;;;;;;5.82;2.28;;;24.30;63.90;;;;;;7390568;19;20014;-78
2023/07/30 13:01:49;;;;;;;5.80;2.90;;;24.50;64.20;;;;;;7390021;19;20239;-77
2023/07/30 13:04:21;;;;;;;6.55;2.60;;;24.80;64.40;;;;;;7388216;19;20279;-78
2023/07/30 13:06:50;;;;;;;9.40;2.30;;;25.00;62.30;;;;;;7390070;19;20034;-77
2023/07/30 13:09:18;;;;;;;8.02;2.70;;;25.10;62.40;;;;;;7407599;19;20010;-77
2023/07/30 13:11:50;;;;;;;8.20;2.60;;;25.20;62.30;;;;;;7385639;19;20006;-77
2023/07/30 13:14:19;;;;;;;11.82;2.40;;;25.30;62.20;;;;;;7388907;19;20007;-77
2023/07/30 13:16:51;;;;;;;9.30;2.75;;;25.30;62.60;;;;;;7388370;19;20010;-76
2023/07/30 13:19:20;;;;;;;8.52;2.90;;;25.40;60.50;;;;;;7387873;19;20053;-78
2023/07/30 13:21:51;;;;;;;9.07;2.35;;;25.50;60.90;;;;;;7389200;19;20074;-76
2023/07/30 13:24:20;;;;;;;9.32;2.75;;;25.70;61.50;;;;;;7406949;19;20014;-76
2023/07/30 13:26:51;;;;;;;9.85;2.65;;;25.70;60.50;;;;;;7389421;19;20034;-77
2023/07/30 13:29:22;;;;;;;12.20;3.08;;;25.70;59.50;;;;;;7388222;19;20333;-77
2023/07/30 13:31:56;;;;;;;9.07;3.22;;;25.60;60.20;;;;;;7386980;19;20271;-78
2023/07/30 13:34:25;;;;;;;5.85;2.53;;;25.60;59.80;;;;;;7390947;19;20007;-78
2023/07/30 13:36:55;;;;;;;9.82;2.85;;;25.70;60.60;;;;;;7389676;19;20067;-79
2023/07/30 13:39:24;;;;;;;7.07;2.83;;;25.60;60.50;;;;;;7409750;19;20027;-77
2023/07/30 13:41:52;;;;;;;9.40;3.30;;;25.60;59.90;;;;;;7389950;19;20243;-79
2023/07/30 13:44:22;;;;;;;8.10;3.20;;;25.70;60.50;;;;;;7389390;19;20003;-79
2023/07/30 13:46:53;;;;;;;6.30;2.80;;;25.70;60.40;;;;;;7387315;19;20034;-74
2023/07/30 13:49:22;;;;;;;8.85;3.30;;;25.70;59.80;;;;;;7385352;19;20010;-75
2023/07/30 13:51:51;;;;;;;11.07;3.17;;;25.50;59.80;;;;;;7384564;19;20127;-74
2023/07/30 13:54:19;;;;;;;11.05;3.00;;;25.30;60.20;;;;;;7406973;19;20039;-74
2023/07/30 13:56:50;;;;;;;12.57;3.22;;;25.20;60.70;;;;;;7384650;19;20024;-74
2023/07/30 13:59:18;;;;;;;9.68;3.22;;;25.00;61.10;;;;;;7385051;19;19999;-75
2023/07/30 14:01:47;;;;;;;8.50;3.20;;;25.10;61.70;;;;;;7385844;19;20007;-74
2023/07/30 14:04:19;;;;;;;8.07;3.15;;;25.20;61.80;;;;;;7385142;19;20003;-74
2023/07/30 14:06:47;;;;;;;11.10;3.15;;;25.30;61.30;;;;;;7391541;19;20011;-76
2023/07/30 14:09:16;;;;;;;8.48;3.40;;;25.40;60.70;;;;;;7412942;19;20017;-77
2023/07/30 14:11:46;;;;;;;8.80;3.28;;;25.50;60.50;;;;;;7390840;19;20006;-75
2023/07/30 14:14:15;;;;;;;11.43;3.47;;;25.70;61.00;;;;;;7391756;19;20018;-76
2023/07/30 14:16:43;;;;;;;7.97;3.30;;;25.70;60.00;;;;;;7388920;19;20007;-74
2023/07/30 14:19:12;;;;;;;9.80;3.10;;;25.80;61.00;;;;;;7384741;19;20015;-75
2023/07/30 14:21:43;;;;;;;10.48;3.40;;;25.90;60.70;;;;;;7385011;19;20010;-74
2023/07/30 14:24:13;;;;;;;6.68;3.00;;;26.00;60.90;;;;;;7406396;19;20388;-75
2023/07/30 14:26:42;;;;;;;9.90;3.53;;;26.00;59.00;;;;;;7383939;19;20010;-74
2023/07/30 14:29:11;;;;;;;10.05;3.63;;;26.00;59.50;;;;;;7383250;19;20004;-75
2023/07/30 14:31:40;;;;;;;8.55;3.38;;;26.00;59.30;;;;;;7386238;19;20003;-76
2023/07/30 14:34:08;;;;;;;7.82;3.58;;;25.90;59.50;;;;;;7383830;19;20023;-74
2023/07/30 14:36:37;;;;;;;7.53;3.33;;;26.00;60.20;;;;;;7383625;19;20011;-74
2023/07/30 14:39:08;;;;;;;11.75;3.33;;;26.10;59.60;;;;;;7405270;19;20010;-74
2023/07/30 14:41:37;;;;;;;14.13;3.80;;;26.10;60.50;;;;;;7383384;19;20027;-74
2023/07/30 14:44:06;;;;;;;8.65;3.65;;;26.00;60.00;;;;;;7383482;19;20026;-74
2023/07/30 14:46:35;;;;;;;9.30;3.55;;;25.90;60.00;;;;;;7384125;19;20002;-75
2023/07/30 14:49:04;;;;;;;16.27;3.67;;;26.00;60.30;;;;;;7383661;19;20082;-74
2023/07/30 14:51:33;;;;;;;11.18;3.80;;;26.00;60.00;;;;;;7381564;19;20007;-75
2023/07/30 14:54:03;;;;;;;10.93;3.63;;;25.90;59.70;;;;;;7404995;19;20026;-74
2023/07/30 14:56:34;;;;;;;13.85;4.05;;;25.80;60.80;;;;;;7382843;19;20002;-75
2023/07/30 14:59:03;;;;;;;6.90;3.47;;;25.70;61.00;;;;;;7383661;19;20010;-74
2023/07/30 15:01:32;;;;;;;11.70;3.63;;;25.50;61.40;;;;;;7383823;19;20003;-74
2023/07/30 15:04:01;;;;;;;6.65;3.25;;;25.50;61.80;;;;;;7383534;19;20002;-74
2023/07/30 15:06:30;;;;;;;11.55;3.97;;;25.60;62.30;;;;;;7404550;19;20367;-74
2023/07/30 15:08:59;;;;;;;10.45;3.50;;;25.50;61.60;;;;;;7383308;19;20010;-75
2023/07/30 15:11:27;;;;;;;19.50;4.32;;;25.50;61.80;;;;;;7382661;19;20012;-74
2023/07/30 15:13:58;;;;;;;11.32;3.55;;;25.50;62.10;;;;;;7384457;19;20023;-75
2023/07/30 15:16:27;;;;;;;11.40;4.25;;;25.30;62.30;;;;;;7384554;19;20020;-75
2023/07/30 15:18:56;;;;;;;16.63;3.92;;;25.30;62.30;;;;;;7382744;19;20015;-75
2023/07/30 15:21:25;;;;;;;9.32;3.90;;;25.30;62.90;;;;;;7405486;19;20025;-75
2023/07/30 15:23:54;;;;;;;8.88;3.45;;;25.20;63.60;;;;;;7382079;19;20083;-75
2023/07/30 15:26:23;;;;;;;14.18;3.70;;;25.10;63.80;;;;;;7383872;19;20007;-75
2023/07/30 15:28:51;;;;;;;9.45;3.33;;;24.90;63.30;;;;;;7382327;19;19999;-75
2023/07/30 15:31:23;;;;;;;13.25;3.65;;;24.90;64.10;;;;;;7381961;19;20010;-75
2023/07/30 15:33:53;;;;;;;12.88;3.63;;;25.10;64.60;;;;;;7382945;19;19995;-74
2023/07/30 15:36:22;;;;;;;15.13;3.60;;;25.10;65.80;;;;;;7402758;19;20034;-73
2023/07/30 15:38:53;;;;;;;11.93;4.00;;;25.00;64.20;;;;;;7381846;19;20010;-76
2023/07/30 15:41:22;;;;;;;10.90;3.38;;;24.90;65.00;;;;;;7381871;19;20011;-74
2023/07/30 15:43:51;;;;;;;12.32;3.40;;;24.90;64.80;;;;;;7382134;19;20002;-75
2023/07/30 15:46:22;;;;;;;8.95;3.80;;;25.00;65.10;;;;;;7381154;19;20385;-74
2023/07/30 15:48:51;;;;;;;15.27;3.63;;;25.10;65.00;;;;;;7380762;19;19996;-75
2023/07/30 15:51:20;;;;;;;9.60;3.15;;;25.10;65.50;;;;;;7403396;19;20011;-75
2023/07/30 15:53:48;;;;;;;8.30;3.35;;;25.10;65.00;;;;;;7381825;19;20024;-76
2023/07/30 15:56:17;;;;;;;11.30;3.60;;;25.10;66.00;;;;;;7381409;19;20020;-75
2023/07/30 15:58:46;;;;;;;14.15;3.55;;;25.10;65.80;;;;;;7382078;19;20006;-75
2023/07/30 16:01:15;;;;;;;10.07;2.97;;;25.10;65.60;;;;;;7382732;19;20010;-74
2023/07/30 16:03:46;;;;;;;7.55;2.92;;;25.00;65.90;;;;;;7385314;19;20010;-75
2023/07/30 16:06:15;;;;;;;6.88;3.00;;;24.90;65.60;;;;;;7412984;19;20066;-76
2023/07/30 16:08:43;;;;;;;12.48;3.60;;;24.90;66.10;;;;;;7392744;19;20011;-75
2023/07/30 16:11:14;;;;;;;10.05;2.97;;;24.90;66.20;;;;;;7389305;19;20006;-76
2023/07/30 16:13:43;;;;;;;9.85;3.67;;;24.80;66.60;;;;;;7389607;19;20003;-75
2023/07/30 16:16:13;;;;;;;7.57;3.20;;;24.80;66.90;;;;;;7386189;19;20006;-75
2023/07/30 16:18:43;;;;;;;8.00;3.08;;;24.70;67.20;;;;;;7382292;19;20012;-75
2023/07/30 16:21:14;;;;;;;12.23;3.10;;;24.60;67.30;;;;;;7400612;19;20392;-75
2023/07/30 16:23:43;;;;;;;11.38;2.97;;;24.60;67.20;;;;;;7384612;19;20002;-74
2023/07/30 16:26:12;;;;;;;12.25;3.60;;;24.70;67.30;;;;;;7380167;19;20381;-76
2023/07/30 16:28:43;;;;;;;6.70;3.05;;;24.60;68.00;;;;;;7380323;19;20002;-75
2023/07/30 16:31:12;;;;;;;6.03;3.30;;;24.70;67.70;;;;;;7381787;19;20003;-74
2023/07/30 16:33:41;;;;;;;11.18;3.00;;;24.70;67.70;;;;;;7385751;19;20022;-75
2023/07/30 16:36:09;;;;;;;9.63;3.08;;;24.60;67.70;;;;;;7409172;19;20374;-75
2023/07/30 16:38:42;;;;;;;8.45;2.70;;;24.60;68.50;;;;;;7387320;19;20043;-75
2023/07/30 16:41:11;;;;;;;8.90;2.95;;;24.80;68.00;;;;;;7387408;19;20326;-74
2023/07/30 16:43:40;;;;;;;9.45;3.00;;;24.70;67.90;;;;;;7391001;19;20013;-74
2023/07/30 16:46:09;;;;;;;10.70;3.53;;;24.80;67.60;;;;;;7388444;19;20022;-75
2023/07/30 16:48:38;;;;;;;13.88;3.88;;;24.90;67.30;;;;;;7387409;19;20014;-74
2023/07/30 16:51:07;;;;;;;12.75;3.53;;;25.00;68.00;;;;;;7408611;19;20025;-75
2023/07/30 16:53:37;;;;;;;13.40;3.60;;;24.90;66.40;;;;;;7384715;19;20006;-74
2023/07/30 16:56:15;;;;;;;7.47;3.50;;;25.00;66.70;;;;;;7387090;19;20003;-75
2023/07/30 16:58:44;;;;;;;7.30;3.15;;;25.10;66.70;;;;;;7387420;19;20026;-75
2023/07/30 17:01:13;;;;;;;12.40;3.50;;;25.80;65.30;;;;;;7387619;19;20026;-74
2023/07/30 17:03:43;;;;;;;6.97;3.38;;;26.60;63.90;;;;;;7387677;19;20417;-74
2023/07/30 17:06:12;;;;;;;15.35;3.72;;;26.90;62.60;;;;;;7408795;19;20003;-74
2023/07/30 17:08:41;;;;;;;9.57;2.85;;;26.70;62.80;;;;;;7386752;19;20003;-75
2023/07/30 17:11:10;;;;;;;12.73;3.55;;;26.40;63.30;;;;;;7386447;19;20010;-76
2023/07/30 17:13:43;;;;;;;11.88;3.13;;;26.30;64.10;;;;;;7385682;19;20238;-76
2023/07/30 17:16:15;;;;;;;7.95;3.15;;;26.20;64.70;;;;;;7387716;19;20013;-76
2023/07/30 17:18:44;;;;;;;12.60;2.88;;;26.00;64.70;;;;;;7388340;19;20014;-76
2023/07/30 17:21:13;;;;;;;14.40;3.25;;;25.90;65.20;;;;;;7409030;19;20006;-75
2023/07/30 17:23:42;;;;;;;11.77;3.85;;;25.90;64.80;;;;;;7386893;19;20019;-75
2023/07/30 17:26:10;;;;;;;13.73;3.45;;;25.80;65.30;;;;;;7386679;19;20007;-76
2023/07/30 17:28:42;;;;;;;14.02;3.78;;;25.80;65.50;;;;;;7386311;19;20364;-74
2023/07/30 17:31:14;;;;;;;7.03;3.30;;;25.70;65.80;;;;;;7387020;19;20002;-77
2023/07/30 17:33:42;;;;;;;14.70;3.20;;;25.70;65.90;;;;;;7385145;19;20067;-78
2023/07/30 17:36:11;;;;;;;14.38;3.28;;;25.70;66.40;;;;;;7406207;19;20314;-77
2023/07/30 17:38:40;;;;;;;10.52;3.58;;;25.60;66.10;;;;;;7387156;19;20010;-75
2023/07/30 17:41:12;;;;;;;11.30;3.42;;;25.60;66.60;;;;;;7385853;19;20011;-77
2023/07/30 17:43:43;;;;;;;8.10;3.22;;;25.50;66.80;;;;;;7384491;19;20317;-73
2023/07/30 17:46:12;;;;;;;;;;;25.50;66.80;;;;;;7386446;19;20062;-73
2023/07/30 17:48:40;;;;;;;12.05;3.65;;;25.60;66.40;;;;;;7385466;19;19920;-73
2023/07/30 17:51:16;;;;;;;7.38;3.35;;;25.60;66.40;;;;;;7406850;19;20031;-73
2023/07/30 17:53:46;;;;;;;13.55;3.22;;;25.60;66.40;;;;;;7383462;19;20003;-74
2023/07/30 17:56:15;;;;;;;14.18;4.00;;;25.50;66.60;;;;;;7385419;19;20007;-73
2023/07/30 17:58:46;;;;;;;9.82;3.20;;;25.40;66.80;;;;;;7385326;19;19999;-72
2023/07/30 18:01:15;;;;;;;11.95;3.78;;;25.30;67.20;;;;;;7385496;19;20295;-73
2023/07/30 18:03:44;;;;;;;8.32;3.35;;;25.20;67.50;;;;;;7383126;19;20002;-72
2023/07/30 18:06:12;;;;;;;8.80;3.30;;;25.30;67.70;;;;;;7408702;19;20010;-72
2023/07/30 18:08:41;;;;;;;8.55;3.17;;;25.30;67.70;;;;;;7389984;19;20007;-72
2023/07/30 18:11:12;;;;;;;9.23;3.35;;;25.30;67.90;;;;;;7390333;19;20002;-73
2023/07/30 18:13:40;;;;;;;12.32;3.55;;;25.20;68.10;;;;;;7391011;19;20007;-73
2023/07/30 18:16:13;;;;;;;7.65;3.35;;;24.90;68.50;;;;;;7386284;19;20019;-73
2023/07/30 18:18:41;;;;;;;16.33;3.17;;;24.90;68.60;;;;;;7385560;19;20007;-73
2023/07/30 18:21:10;;;;;;;8.18;3.45;;;24.90;68.60;;;;;;7406207;19;20027;-72
2023/07/30 18:23:39;;;;;;;12.90;3.03;;;24.90;69.10;;;;;;7384194;19;20011;-73
2023/07/30 18:26:08;;;;;;;9.27;3.42;;;24.70;69.20;;;;;;7383931;19;20290;-73
2023/07/30 18:28:37;;;;;;;17.33;3.33;;;24.70;69.70;;;;;;7383847;19;20011;-74
2023/07/30 18:31:08;;;;;;;13.65;3.33;;;24.80;69.80;;;;;;7384101;19;20010;-72
2023/07/30 18:33:40;;;;;;;10.70;3.30;;;24.90;69.80;;;;;;7383610;19;20007;-72
2023/07/30 18:36:08;;;;;;;;;;;24.70;69.70;;;;;;7406122;19;20031;-72
2023/07/30 18:38:37;;;;;;;9.13;3.10;;;24.50;69.80;;;;;;7383406;19;20118;-73
2023/07/30 18:41:07;;;;;;;6.25;3.00;;;24.30;70.70;;;;;;7383606;19;20007;-74
2023/07/30 18:43:36;;;;;;;12.70;2.83;;;24.20;71.40;;;;;;7383557;19;20002;-74
2023/07/30 18:46:04;;;;;;;6.65;2.58;;;24.10;71.90;;;;;;7383752;19;20010;-73
2023/07/30 18:48:33;;;;;;;10.43;2.70;;;24.10;72.50;;;;;;7383079;19;20036;-73
2023/07/30 18:51:04;;;;;;;6.32;3.00;;;24.20;72.70;;;;;;7404211;19;20006;-72
2023/07/30 18:53:33;;;;;;;;;;;24.20;72.90;;;;;;7381096;19;20322;-72
2023/07/30 18:56:04;;;;;;;8.15;2.72;;;24.10;73.30;;;;;;7381492;19;19918;-73
2023/07/30 18:58:32;;;;;;;9.05;3.00;;;24.00;73.40;;;;;;7382456;19;20044;-72